sensor_id;sensor_type;location;lat;lon;timestamp;pressure;altitude;pressure_sealevel;temperature;humidity
68301;BME280;55146;47.468;18.806;2023-07-16T00:00:26;99846.56;;;23.53;73.57
68301;BME280;55146;47.468;18.806;2023-07-16T00:02:52;99846.13;;;23.51;73.58
68301;BME280;55146;47.468;18.806;2023-07-16T00:05:17;99847.31;;;23.50;73.63
68301;BME280;55146;47.468;18.806;2023-07-16T00:07:43;99843.22;;;23.47;73.67
68301;BME280;55146;47.468;18.806;2023-07-16T00:10:08;99834.34;;;23.45;73.62
68301;BME280;55146;47.468;18.806;2023-07-16T00:12:34;99833.87;;;23.43;73.68
68301;BME280;55146;47.468;18.806;2023-07-16T00:14:59;99837.88;;;23.42;73.72
68301;BME280;55146;47.468;18.806;2023-07-16T00:17:24;99833.00;;;23.39;73.72
68301;BME280;55146;47.468;18.806;2023-07-16T00:19:50;99844.94;;;23.36;74.15
68301;BME280;55146;47.468;18.806;2023-07-16T00:22:15;99829.62;;;23.33;74.23
68301;BME280;55146;47.468;18.806;2023-07-16T00:24:40;99834.81;;;23.31;74.26
68301;BME280;55146;47.468;18.806;2023-07-16T00:27:06;99836.34;;;23.29;74.56
68301;BME280;55146;47.468;18.806;2023-07-16T00:29:31;99833.53;;;23.29;74.81
68301;BME280;55146;47.468;18.806;2023-07-16T00:31:56;99830.28;;;23.27;74.99
68301;BME280;55146;47.468;18.806;2023-07-16T00:34:22;99830.22;;;23.23;74.61
68301;BME280;55146;47.468;18.806;2023-07-16T00:36:47;99825.41;;;23.24;74.83
68301;BME280;55146;47.468;18.806;2023-07-16T00:39:12;99829.75;;;23.21;74.80
68301;BME280;55146;47.468;18.806;2023-07-16T00:41:38;99834.47;;;23.17;75.11
68301;BME280;55146;47.468;18.806;2023-07-16T00:44:03;99830.69;;;23.10;75.20
68301;BME280;55146;47.468;18.806;2023-07-16T00:46:28;99830.25;;;23.08;75.43
68301;BME280;55146;47.468;18.806;2023-07-16T00:48:54;99824.66;;;23.08;75.17
68301;BME280;55146;47.468;18.806;2023-07-16T00:51:21;99827.34;;;23.04;75.25
68301;BME280;55146;47.468;18.806;2023-07-16T00:53:48;99827.34;;;23.04;75.72
68301;BME280;55146;47.468;18.806;2023-07-16T00:56:16;99824.13;;;23.02;76.02
68301;BME280;55146;47.468;18.806;2023-07-16T00:58:42;99817.22;;;22.99;75.85
68301;BME280;55146;47.468;18.806;2023-07-16T01:01:08;99817.94;;;22.96;75.93
68301;BME280;55146;47.468;18.806;2023-07-16T01:03:33;99814.31;;;22.96;75.94
68301;BME280;55146;47.468;18.806;2023-07-16T01:06:11;99807.91;;;22.95;76.28
68301;BME280;55146;47.468;18.806;2023-07-16T01:08:46;99813.06;;;22.93;76.65
68301;BME280;55146;47.468;18.806;2023-07-16T01:11:13;99813.88;;;22.63;78.89
68301;BME280;55146;47.468;18.806;2023-07-16T01:13:39;99819.75;;;22.57;79.47
68301;BME280;55146;47.468;18.806;2023-07-16T01:16:05;99814.03;;;22.54;80.04
68301;BME280;55146;47.468;18.806;2023-07-16T01:18:30;99821.81;;;22.60;79.81
68301;BME280;55146;47.468;18.806;2023-07-16T01:20:56;99825.91;;;22.63;80.19
68301;BME280;55146;47.468;18.806;2023-07-16T01:26:05;99827.72;;;22.71;80.41
68301;BME280;55146;47.468;18.806;2023-07-16T01:31:21;99821.94;;;22.80;80.25
68301;BME280;55146;47.468;18.806;2023-07-16T01:33:50;99823.84;;;22.76;81.33
68301;BME280;55146;47.468;18.806;2023-07-16T01:36:17;99822.22;;;22.75;80.91
68301;BME280;55146;47.468;18.806;2023-07-16T01:38:44;99819.78;;;22.73;81.16
68301;BME280;55146;47.468;18.806;2023-07-16T01:41:11;99819.06;;;22.76;80.94
68301;BME280;55146;47.468;18.806;2023-07-16T01:43:36;99818.25;;;22.76;80.75
68301;BME280;55146;47.468;18.806;2023-07-16T01:46:01;99809.00;;;22.75;80.70
68301;BME280;55146;47.468;18.806;2023-07-16T01:48:32;99804.56;;;22.74;80.58
68301;BME280;55146;47.468;18.806;2023-07-16T01:50:59;99806.91;;;22.72;80.47
68301;BME280;55146;47.468;18.806;2023-07-16T01:53:24;99808.09;;;22.71;80.36
68301;BME280;55146;47.468;18.806;2023-07-16T01:55:50;99804.47;;;22.71;80.25
68301;BME280;55146;47.468;18.806;2023-07-16T01:58:15;99800.03;;;22.70;80.42
68301;BME280;55146;47.468;18.806;2023-07-16T02:00:41;99807.91;;;22.64;80.78
68301;BME280;55146;47.468;18.806;2023-07-16T02:03:06;99804.63;;;22.62;80.87
68301;BME280;55146;47.468;18.806;2023-07-16T02:05:31;99798.69;;;22.64;80.50
68301;BME280;55146;47.468;18.806;2023-07-16T02:07:57;99797.88;;;22.63;80.19
68301;BME280;55146;47.468;18.806;2023-07-16T02:10:22;99801.09;;;22.65;79.57
68301;BME280;55146;47.468;18.806;2023-07-16T02:12:48;99799.94;;;22.66;79.09
68301;BME280;55146;47.468;18.806;2023-07-16T02:15:13;99792.31;;;22.67;78.84
68301;BME280;55146;47.468;18.806;2023-07-16T02:17:39;99784.56;;;22.60;79.82
68301;BME280;55146;47.468;18.806;2023-07-16T02:20:05;99796.97;;;22.75;79.85
68301;BME280;55146;47.468;18.806;2023-07-16T02:22:31;99788.63;;;22.94;78.87
68301;BME280;55146;47.468;18.806;2023-07-16T02:24:56;99778.00;;;23.03;77.86
68301;BME280;55146;47.468;18.806;2023-07-16T02:27:22;99776.66;;;23.13;77.59
68301;BME280;55146;47.468;18.806;2023-07-16T02:29:47;99775.25;;;23.22;76.68
68301;BME280;55146;47.468;18.806;2023-07-16T02:32:12;99784.47;;;23.23;76.21
68301;BME280;55146;47.468;18.806;2023-07-16T02:34:38;99780.97;;;23.26;75.76
68301;BME280;55146;47.468;18.806;2023-07-16T02:37:03;99783.75;;;23.26;75.83
68301;BME280;55146;47.468;18.806;2023-07-16T02:39:29;99786.84;;;23.21;75.42
68301;BME280;55146;47.468;18.806;2023-07-16T02:41:54;99786.13;;;23.24;75.99
68301;BME280;55146;47.468;18.806;2023-07-16T02:44:19;99791.66;;;23.20;75.59
68301;BME280;55146;47.468;18.806;2023-07-16T02:46:45;99783.12;;;23.17;76.12
68301;BME280;55146;47.468;18.806;2023-07-16T02:49:10;99787.28;;;23.23;75.72
68301;BME280;55146;47.468;18.806;2023-07-16T02:51:35;99787.66;;;23.21;75.52
68301;BME280;55146;47.468;18.806;2023-07-16T02:54:01;99786.84;;;23.21;75.39
68301;BME280;55146;47.468;18.806;2023-07-16T02:56:26;99785.94;;;23.17;75.64
68301;BME280;55146;47.468;18.806;2023-07-16T02:58:52;99781.69;;;23.23;75.75
68301;BME280;55146;47.468;18.806;2023-07-16T03:01:17;99795.47;;;23.12;75.37
68301;BME280;55146;47.468;18.806;2023-07-16T03:03:42;99793.19;;;23.18;75.59
68301;BME280;55146;47.468;18.806;2023-07-16T03:06:08;99797.09;;;23.13;75.45
68301;BME280;55146;47.468;18.806;2023-07-16T03:08:34;99796.81;;;23.18;75.00
68301;BME280;55146;47.468;18.806;2023-07-16T03:10:59;99800.44;;;23.19;75.58
68301;BME280;55146;47.468;18.806;2023-07-16T03:13:24;99800.81;;;23.17;75.72
68301;BME280;55146;47.468;18.806;2023-07-16T03:15:50;99811.97;;;23.14;76.38
68301;BME280;55146;47.468;18.806;2023-07-16T03:18:18;99806.19;;;23.07;77.04
68301;BME280;55146;47.468;18.806;2023-07-16T03:20:43;99802.19;;;23.08;76.91
68301;BME280;55146;47.468;18.806;2023-07-16T03:23:09;99811.13;;;23.13;76.90
68301;BME280;55146;47.468;18.806;2023-07-16T03:25:34;99807.16;;;23.14;76.87
68301;BME280;55146;47.468;18.806;2023-07-16T03:27:59;99803.91;;;23.12;77.25
68301;BME280;55146;47.468;18.806;2023-07-16T03:30:25;99798.56;;;23.07;77.59
68301;BME280;55146;47.468;18.806;2023-07-16T03:32:50;99803.91;;;23.12;77.57
68301;BME280;55146;47.468;18.806;2023-07-16T03:35:15;99805.25;;;23.03;77.92
68301;BME280;55146;47.468;18.806;2023-07-16T03:37:41;99804.81;;;23.01;78.26
68301;BME280;55146;47.468;18.806;2023-07-16T03:40:14;99811.56;;;23.15;77.68
68301;BME280;55146;47.468;18.806;2023-07-16T03:42:40;99816.81;;;23.17;77.62
68301;BME280;55146;47.468;18.806;2023-07-16T03:45:06;99808.94;;;23.22;77.12
68301;BME280;55146;47.468;18.806;2023-07-16T03:47:31;99818.69;;;23.28;76.97
68301;BME280;55146;47.468;18.806;2023-07-16T03:49:57;99812.19;;;23.24;75.85
68301;BME280;55146;47.468;18.806;2023-07-16T03:52:22;99814.66;;;23.10;77.33
68301;BME280;55146;47.468;18.806;2023-07-16T03:54:49;99806.88;;;23.19;77.25
68301;BME280;55146;47.468;18.806;2023-07-16T03:57:15;99818.63;;;23.25;76.88
68301;BME280;55146;47.468;18.806;2023-07-16T03:59:40;99826.59;;;23.23;76.83
68301;BME280;55146;47.468;18.806;2023-07-16T04:02:06;99823.78;;;23.23;76.47
68301;BME280;55146;47.468;18.806;2023-07-16T04:04:32;99823.88;;;23.26;76.41
68301;BME280;55146;47.468;18.806;2023-07-16T04:06:57;99826.03;;;23.33;76.55
68301;BME280;55146;47.468;18.806;2023-07-16T04:09:23;99834.37;;;23.29;76.35
68301;BME280;55146;47.468;18.806;2023-07-16T04:11:49;99838.03;;;23.14;76.61
68301;BME280;55146;47.468;18.806;2023-07-16T04:14:14;99835.22;;;23.14;77.65
68301;BME280;55146;47.468;18.806;2023-07-16T04:16:39;99844.28;;;23.08;77.82
68301;BME280;55146;47.468;18.806;2023-07-16T04:19:05;99833.37;;;23.22;77.15
68301;BME280;55146;47.468;18.806;2023-07-16T04:21:30;99832.50;;;23.18;76.76
68301;BME280;55146;47.468;18.806;2023-07-16T04:23:55;99838.19;;;23.21;76.90
68301;BME280;55146;47.468;18.806;2023-07-16T04:26:21;99841.50;;;23.27;75.90
68301;BME280;55146;47.468;18.806;2023-07-16T04:28:46;99847.59;;;23.29;75.32
68301;BME280;55146;47.468;18.806;2023-07-16T04:31:11;99845.06;;;23.24;74.02
68301;BME280;55146;47.468;18.806;2023-07-16T04:33:37;99844.81;;;23.13;75.58
68301;BME280;55146;47.468;18.806;2023-07-16T04:36:02;99857.28;;;23.16;74.38
68301;BME280;55146;47.468;18.806;2023-07-16T04:38:28;99861.44;;;23.22;73.28
68301;BME280;55146;47.468;18.806;2023-07-16T04:40:53;99857.47;;;23.23;73.81
68301;BME280;55146;47.468;18.806;2023-07-16T04:43:18;99859.47;;;23.22;73.84
68301;BME280;55146;47.468;18.806;2023-07-16T04:45:44;99854.75;;;23.26;74.20
68301;BME280;55146;47.468;18.806;2023-07-16T04:48:12;99854.75;;;23.26;74.15
68301;BME280;55146;47.468;18.806;2023-07-16T04:50:38;99851.56;;;23.28;73.12
68301;BME280;55146;47.468;18.806;2023-07-16T04:53:04;99856.00;;;23.29;73.67
68301;BME280;55146;47.468;18.806;2023-07-16T04:55:35;99866.53;;;23.32;73.42
68301;BME280;55146;47.468;18.806;2023-07-16T04:58:00;99861.72;;;23.32;73.73
68301;BME280;55146;47.468;18.806;2023-07-16T05:00:27;99860.25;;;23.38;72.21
68301;BME280;55146;47.468;18.806;2023-07-16T05:02:53;99859.50;;;23.42;72.42
68301;BME280;55146;47.468;18.806;2023-07-16T05:05:18;99856.63;;;23.38;72.75
68301;BME280;55146;47.468;18.806;2023-07-16T05:07:44;99849.16;;;23.46;72.54
68301;BME280;55146;47.468;18.806;2023-07-16T05:10:09;99848.75;;;23.44;74.20
68301;BME280;55146;47.468;18.806;2023-07-16T05:12:35;99861.16;;;23.43;73.75
68301;BME280;55146;47.468;18.806;2023-07-16T05:15:00;99862.88;;;23.47;72.28
68301;BME280;55146;47.468;18.806;2023-07-16T05:17:25;99857.72;;;23.49;72.94
68301;BME280;55146;47.468;18.806;2023-07-16T05:19:51;99855.13;;;23.60;70.85
68301;BME280;55146;47.468;18.806;2023-07-16T05:22:16;99856.63;;;23.73;70.52
68301;BME280;55146;47.468;18.806;2023-07-16T05:24:41;99852.94;;;23.69;69.95
68301;BME280;55146;47.468;18.806;2023-07-16T05:27:07;99856.94;;;23.68;70.43
68301;BME280;55146;47.468;18.806;2023-07-16T05:29:32;99856.19;;;23.71;70.20
68301;BME280;55146;47.468;18.806;2023-07-16T05:31:58;99867.00;;;23.88;70.07
68301;BME280;55146;47.468;18.806;2023-07-16T05:34:23;99864.25;;;23.92;70.10
68301;BME280;55146;47.468;18.806;2023-07-16T05:36:48;99856.84;;;24.03;69.59
68301;BME280;55146;47.468;18.806;2023-07-16T05:39:14;99866.19;;;24.07;69.75
68301;BME280;55146;47.468;18.806;2023-07-16T05:41:40;99866.09;;;24.03;70.94
68301;BME280;55146;47.468;18.806;2023-07-16T05:44:06;99864.72;;;24.13;69.69
68301;BME280;55146;47.468;18.806;2023-07-16T05:46:33;99876.56;;;24.22;69.58
68301;BME280;55146;47.468;18.806;2023-07-16T05:48:58;99866.19;;;24.26;69.66
68301;BME280;55146;47.468;18.806;2023-07-16T05:51:23;99870.31;;;24.32;69.38
68301;BME280;55146;47.468;18.806;2023-07-16T05:53:49;99864.47;;;24.41;69.07
68301;BME280;55146;47.468;18.806;2023-07-16T05:56:14;99871.56;;;24.54;67.81
68301;BME280;55146;47.468;18.806;2023-07-16T05:58:40;99873.31;;;24.62;67.43
68301;BME280;55146;47.468;18.806;2023-07-16T06:01:07;99873.44;;;24.69;67.13
68301;BME280;55146;47.468;18.806;2023-07-16T06:03:32;99875.38;;;24.88;67.37
68301;BME280;55146;47.468;18.806;2023-07-16T06:05:57;99868.66;;;24.92;67.45
68301;BME280;55146;47.468;18.806;2023-07-16T06:08:23;99871.16;;;24.97;67.81
68301;BME280;55146;47.468;18.806;2023-07-16T06:10:50;99872.63;;;25.14;68.68
68301;BME280;55146;47.468;18.806;2023-07-16T06:13:15;99875.19;;;25.23;67.89
68301;BME280;55146;47.468;18.806;2023-07-16T06:15:41;99876.63;;;25.36;67.89
68301;BME280;55146;47.468;18.806;2023-07-16T06:18:07;99879.37;;;25.59;67.14
68301;BME280;55146;47.468;18.806;2023-07-16T06:20:32;99875.31;;;25.86;66.17
68301;BME280;55146;47.468;18.806;2023-07-16T06:22:58;99879.69;;;26.10;63.97
68301;BME280;55146;47.468;18.806;2023-07-16T06:25:23;99872.34;;;26.35;65.69
68301;BME280;55146;47.468;18.806;2023-07-16T06:27:48;99868.62;;;26.65;64.67
68301;BME280;55146;47.468;18.806;2023-07-16T06:30:14;99869.78;;;26.97;62.14
68301;BME280;55146;47.468;18.806;2023-07-16T06:32:39;99869.19;;;27.28;61.10
68301;BME280;55146;47.468;18.806;2023-07-16T06:35:04;99870.16;;;27.50;59.34
68301;BME280;55146;47.468;18.806;2023-07-16T06:37:30;99864.69;;;27.78;61.14
68301;BME280;55146;47.468;18.806;2023-07-16T06:39:55;99866.88;;;28.06;61.75
68301;BME280;55146;47.468;18.806;2023-07-16T06:42:21;99869.81;;;28.35;60.45
68301;BME280;55146;47.468;18.806;2023-07-16T06:44:46;99869.50;;;28.58;56.60
68301;BME280;55146;47.468;18.806;2023-07-16T06:47:12;99877.22;;;28.85;58.88
68301;BME280;55146;47.468;18.806;2023-07-16T06:49:38;99880.88;;;29.11;58.99
68301;BME280;55146;47.468;18.806;2023-07-16T06:52:03;99876.88;;;29.37;55.03
68301;BME280;55146;47.468;18.806;2023-07-16T06:54:29;99883.72;;;29.60;52.33
68301;BME280;55146;47.468;18.806;2023-07-16T06:56:54;99885.31;;;29.68;50.44
68301;BME280;55146;47.468;18.806;2023-07-16T06:59:20;99881.63;;;29.82;49.37
68301;BME280;55146;47.468;18.806;2023-07-16T07:01:45;99879.59;;;29.93;52.32
68301;BME280;55146;47.468;18.806;2023-07-16T07:04:11;99877.47;;;30.15;50.17
68301;BME280;55146;47.468;18.806;2023-07-16T07:06:37;99879.00;;;30.34;49.02
68301;BME280;55146;47.468;18.806;2023-07-16T07:09:03;99867.62;;;30.41;50.08
68301;BME280;55146;47.468;18.806;2023-07-16T07:11:28;99871.59;;;30.58;50.62
68301;BME280;55146;47.468;18.806;2023-07-16T07:13:54;99882.09;;;30.64;48.71
68301;BME280;55146;47.468;18.806;2023-07-16T07:16:19;99882.03;;;30.78;50.78
68301;BME280;55146;47.468;18.806;2023-07-16T07:18:45;99874.19;;;30.97;49.70
68301;BME280;55146;47.468;18.806;2023-07-16T07:21:10;99879.34;;;31.16;52.20
68301;BME280;55146;47.468;18.806;2023-07-16T07:23:36;99875.88;;;31.39;52.41
68301;BME280;55146;47.468;18.806;2023-07-16T07:26:01;99876.91;;;31.55;50.63
68301;BME280;55146;47.468;18.806;2023-07-16T07:28:27;99879.19;;;31.74;50.40
68301;BME280;55146;47.468;18.806;2023-07-16T07:30:52;99879.44;;;31.87;47.33
68301;BME280;55146;47.468;18.806;2023-07-16T07:33:17;99880.09;;;32.02;50.00
68301;BME280;55146;47.468;18.806;2023-07-16T07:35:43;99869.75;;;32.19;48.82
68301;BME280;55146;47.468;18.806;2023-07-16T07:38:09;99869.97;;;32.31;49.18
68301;BME280;55146;47.468;18.806;2023-07-16T07:40:34;99874.34;;;32.39;47.58
68301;BME280;55146;47.468;18.806;2023-07-16T07:43:00;99857.09;;;32.50;46.08
68301;BME280;55146;47.468;18.806;2023-07-16T07:45:25;99865.84;;;32.66;44.16
68301;BME280;55146;47.468;18.806;2023-07-16T07:47:51;99862.13;;;32.69;46.47
68301;BME280;55146;47.468;18.806;2023-07-16T07:50:16;99870.72;;;32.92;46.73
68301;BME280;55146;47.468;18.806;2023-07-16T07:52:42;99868.69;;;32.93;44.87
68301;BME280;55146;47.468;18.806;2023-07-16T07:55:07;99869.06;;;32.95;45.53
68301;BME280;55146;47.468;18.806;2023-07-16T07:57:33;99871.66;;;33.09;44.27
68301;BME280;55146;47.468;18.806;2023-07-16T07:59:58;99872.34;;;33.17;42.60
68301;BME280;55146;47.468;18.806;2023-07-16T08:02:24;99874.69;;;33.25;42.67
68301;BME280;55146;47.468;18.806;2023-07-16T08:04:53;99870.72;;;33.43;42.50
68301;BME280;55146;47.468;18.806;2023-07-16T08:07:19;99873.44;;;33.50;43.86
68301;BME280;55146;47.468;18.806;2023-07-16T08:09:46;99882.19;;;33.62;41.32
68301;BME280;55146;47.468;18.806;2023-07-16T08:12:11;99875.66;;;33.62;41.26
68301;BME280;55146;47.468;18.806;2023-07-16T08:14:37;99879.13;;;33.73;40.84
68301;BME280;55146;47.468;18.806;2023-07-16T08:17:02;99882.38;;;33.75;39.54
68301;BME280;55146;47.468;18.806;2023-07-16T08:19:28;99876.72;;;33.48;40.13
68301;BME280;55146;47.468;18.806;2023-07-16T08:21:53;99878.13;;;33.60;42.75
68301;BME280;55146;47.468;18.806;2023-07-16T08:24:18;99870.56;;;33.73;41.54
68301;BME280;55146;47.468;18.806;2023-07-16T08:26:44;99861.22;;;33.72;41.49
68301;BME280;55146;47.468;18.806;2023-07-16T08:29:10;99865.13;;;33.82;42.24
68301;BME280;55146;47.468;18.806;2023-07-16T08:31:35;99863.19;;;33.95;39.95
68301;BME280;55146;47.468;18.806;2023-07-16T08:34:00;99865.75;;;33.90;40.81
68301;BME280;55146;47.468;18.806;2023-07-16T08:36:26;99868.69;;;33.86;39.67
68301;BME280;55146;47.468;18.806;2023-07-16T08:38:51;99862.25;;;33.82;39.72
68301;BME280;55146;47.468;18.806;2023-07-16T08:44:00;99871.81;;;33.72;42.05
68301;BME280;55146;47.468;18.806;2023-07-16T08:46:26;99865.31;;;33.91;41.15
68301;BME280;55146;47.468;18.806;2023-07-16T08:48:52;99863.41;;;33.85;40.16
68301;BME280;55146;47.468;18.806;2023-07-16T08:51:20;99866.56;;;34.10;41.13
68301;BME280;55146;47.468;18.806;2023-07-16T08:53:46;99879.47;;;34.38;41.05
68301;BME280;55146;47.468;18.806;2023-07-16T08:56:12;99872.56;;;34.55;39.74
68301;BME280;55146;47.468;18.806;2023-07-16T08:58:38;99871.66;;;34.58;38.24
68301;BME280;55146;47.468;18.806;2023-07-16T09:01:04;99882.50;;;34.67;38.01
68301;BME280;55146;47.468;18.806;2023-07-16T09:03:30;99884.59;;;34.63;38.59
68301;BME280;55146;47.468;18.806;2023-07-16T09:05:56;99877.75;;;34.60;38.65
68301;BME280;55146;47.468;18.806;2023-07-16T09:08:21;99878.87;;;34.63;38.64
68301;BME280;55146;47.468;18.806;2023-07-16T09:10:56;99878.44;;;34.48;37.94
68301;BME280;55146;47.468;18.806;2023-07-16T09:13:22;99877.59;;;34.31;39.95
68301;BME280;55146;47.468;18.806;2023-07-16T09:15:52;99871.37;;;34.53;41.84
68301;BME280;55146;47.468;18.806;2023-07-16T09:18:21;99873.25;;;34.95;41.35
68301;BME280;55146;47.468;18.806;2023-07-16T09:20:48;99870.06;;;34.93;39.06
68301;BME280;55146;47.468;18.806;2023-07-16T09:23:17;99866.81;;;34.91;38.33
68301;BME280;55146;47.468;18.806;2023-07-16T09:25:43;99870.75;;;34.97;38.53
68301;BME280;55146;47.468;18.806;2023-07-16T09:28:09;99867.00;;;35.16;37.45
68301;BME280;55146;47.468;18.806;2023-07-16T09:30:34;99867.44;;;35.15;37.29
68301;BME280;55146;47.468;18.806;2023-07-16T09:33:21;99866.06;;;35.23;38.33
68301;BME280;55146;47.468;18.806;2023-07-16T09:35:50;99867.28;;;35.38;37.25
68301;BME280;55146;47.468;18.806;2023-07-16T09:38:17;99862.72;;;35.24;36.17
68301;BME280;55146;47.468;18.806;2023-07-16T09:40:43;99865.41;;;35.32;39.38
68301;BME280;55146;47.468;18.806;2023-07-16T09:43:11;99861.88;;;35.56;38.27
68301;BME280;55146;47.468;18.806;2023-07-16T09:45:36;99874.47;;;35.30;38.25
68301;BME280;55146;47.468;18.806;2023-07-16T09:48:03;99868.34;;;35.44;38.88
68301;BME280;55146;47.468;18.806;2023-07-16T09:50:29;99866.53;;;35.50;38.64
68301;BME280;55146;47.468;18.806;2023-07-16T09:52:58;99877.34;;;35.59;38.34
68301;BME280;55146;47.468;18.806;2023-07-16T09:55:25;99874.03;;;35.77;38.81
68301;BME280;55146;47.468;18.806;2023-07-16T09:57:57;99873.16;;;35.92;36.86
68301;BME280;55146;47.468;18.806;2023-07-16T10:00:23;99867.44;;;35.92;37.90
68301;BME280;55146;47.468;18.806;2023-07-16T10:02:50;99868.19;;;36.09;38.59
68301;BME280;55146;47.468;18.806;2023-07-16T10:05:24;99857.31;;;36.04;36.60
68301;BME280;55146;47.468;18.806;2023-07-16T10:07:59;99860.25;;;35.55;36.52
68301;BME280;55146;47.468;18.806;2023-07-16T10:10:37;99853.81;;;35.22;37.70
68301;BME280;55146;47.468;18.806;2023-07-16T10:13:04;99855.03;;;35.38;37.26
68301;BME280;55146;47.468;18.806;2023-07-16T10:15:29;99846.97;;;35.49;36.67
68301;BME280;55146;47.468;18.806;2023-07-16T10:17:55;99855.50;;;35.65;39.34
68301;BME280;55146;47.468;18.806;2023-07-16T10:20:36;99844.44;;;35.96;36.75
68301;BME280;55146;47.468;18.806;2023-07-16T10:23:12;99846.69;;;36.17;38.45
68301;BME280;55146;47.468;18.806;2023-07-16T10:25:41;99842.25;;;36.29;37.74
68301;BME280;55146;47.468;18.806;2023-07-16T10:28:22;99839.66;;;36.47;37.81
68301;BME280;55146;47.468;18.806;2023-07-16T10:30:49;99840.09;;;36.58;38.14
68301;BME280;55146;47.468;18.806;2023-07-16T10:33:14;99846.91;;;36.64;37.04
68301;BME280;55146;47.468;18.806;2023-07-16T10:35:45;99839.44;;;36.67;36.87
68301;BME280;55146;47.468;18.806;2023-07-16T10:38:10;99843.06;;;36.55;38.12
68301;BME280;55146;47.468;18.806;2023-07-16T10:40:45;99839.44;;;36.67;34.54
68301;BME280;55146;47.468;18.806;2023-07-16T10:43:12;99845.94;;;36.55;35.44
68301;BME280;55146;47.468;18.806;2023-07-16T10:45:38;99842.53;;;36.60;37.13
68301;BME280;55146;47.468;18.806;2023-07-16T10:48:04;99845.03;;;36.58;35.37
68301;BME280;55146;47.468;18.806;2023-07-16T10:50:32;99847.66;;;35.98;34.07
68301;BME280;55146;47.468;18.806;2023-07-16T10:52:59;99853.09;;;35.63;36.13
68301;BME280;55146;47.468;18.806;2023-07-16T10:55:26;99835.31;;;35.72;35.28
68301;BME280;55146;47.468;18.806;2023-07-16T10:57:52;99839.13;;;35.82;37.51
68301;BME280;55146;47.468;18.806;2023-07-16T11:00:20;99844.59;;;35.76;35.85
68301;BME280;55146;47.468;18.806;2023-07-16T11:02:46;99839.50;;;35.96;37.75
68301;BME280;55146;47.468;18.806;2023-07-16T11:05:16;99831.94;;;35.90;38.54
68301;BME280;55146;47.468;18.806;2023-07-16T11:07:48;99837.38;;;36.13;36.88
68301;BME280;55146;47.468;18.806;2023-07-16T11:10:17;99830.03;;;36.12;35.49
68301;BME280;55146;47.468;18.806;2023-07-16T11:12:43;99834.37;;;36.04;35.14
68301;BME280;55146;47.468;18.806;2023-07-16T11:15:10;99826.56;;;35.92;38.67
68301;BME280;55146;47.468;18.806;2023-07-16T11:17:38;99826.03;;;36.09;36.73
68301;BME280;55146;47.468;18.806;2023-07-16T11:20:07;99824.78;;;36.11;36.29
68301;BME280;55146;47.468;18.806;2023-07-16T11:22:37;99827.38;;;36.05;35.59
68301;BME280;55146;47.468;18.806;2023-07-16T11:25:02;99826.28;;;36.15;34.83
68301;BME280;55146;47.468;18.806;2023-07-16T11:27:31;99825.28;;;36.22;34.61
68301;BME280;55146;47.468;18.806;2023-07-16T11:29:58;99833.09;;;36.05;33.71
68301;BME280;55146;47.468;18.806;2023-07-16T11:32:41;99830.00;;;35.99;34.66
68301;BME280;55146;47.468;18.806;2023-07-16T11:35:07;99824.13;;;36.19;34.40
68301;BME280;55146;47.468;18.806;2023-07-16T11:37:34;99833.16;;;36.18;35.13
68301;BME280;55146;47.468;18.806;2023-07-16T11:40:07;99834.09;;;35.86;35.29
68301;BME280;55146;47.468;18.806;2023-07-16T11:42:35;99836.38;;;35.78;37.86
68301;BME280;55146;47.468;18.806;2023-07-16T11:45:02;99825.03;;;35.87;35.62
68301;BME280;55146;47.468;18.806;2023-07-16T11:47:28;99834.72;;;36.06;41.21
68301;BME280;55146;47.468;18.806;2023-07-16T11:49:54;99824.03;;;36.23;37.73
68301;BME280;55146;47.468;18.806;2023-07-16T11:52:24;99823.47;;;36.40;38.62
68301;BME280;55146;47.468;18.806;2023-07-16T11:54:51;99822.09;;;36.58;36.74
68301;BME280;55146;47.468;18.806;2023-07-16T11:57:17;99824.66;;;36.68;36.55
68301;BME280;55146;47.468;18.806;2023-07-16T11:59:42;99820.16;;;36.67;35.65
68301;BME280;55146;47.468;18.806;2023-07-16T12:02:08;99817.84;;;36.62;34.90
68301;BME280;55146;47.468;18.806;2023-07-16T12:04:33;99819.81;;;36.40;35.01
68301;BME280;55146;47.468;18.806;2023-07-16T12:06:59;99821.84;;;36.39;35.81
68301;BME280;55146;47.468;18.806;2023-07-16T12:09:24;99812.00;;;36.53;35.53
68301;BME280;55146;47.468;18.806;2023-07-16T12:11:50;99813.72;;;36.63;38.13
68301;BME280;55146;47.468;18.806;2023-07-16T12:14:15;99817.50;;;36.60;35.76
68301;BME280;55146;47.468;18.806;2023-07-16T12:16:41;99812.91;;;36.50;34.98
68301;BME280;55146;47.468;18.806;2023-07-16T12:19:08;99810.16;;;36.21;36.25
68301;BME280;55146;47.468;18.806;2023-07-16T12:21:34;99818.44;;;36.03;35.02
68301;BME280;55146;47.468;18.806;2023-07-16T12:23:59;99821.72;;;35.60;37.52
68301;BME280;55146;47.468;18.806;2023-07-16T12:26:25;99812.94;;;35.22;38.48
68301;BME280;55146;47.468;18.806;2023-07-16T12:28:50;99812.50;;;35.23;37.70
68301;BME280;55146;47.468;18.806;2023-07-16T12:31:15;99817.31;;;35.26;37.61
68301;BME280;55146;47.468;18.806;2023-07-16T12:33:45;99811.41;;;35.34;38.85
68301;BME280;55146;47.468;18.806;2023-07-16T12:36:12;99805.88;;;35.55;37.44
68301;BME280;55146;47.468;18.806;2023-07-16T12:38:37;99800.50;;;35.57;39.32
68301;BME280;55146;47.468;18.806;2023-07-16T12:41:02;99806.69;;;35.72;38.35
68301;BME280;55146;47.468;18.806;2023-07-16T12:43:28;99810.09;;;35.51;37.37
68301;BME280;55146;47.468;18.806;2023-07-16T12:45:53;99807.81;;;35.13;39.00
68301;BME280;55146;47.468;18.806;2023-07-16T12:48:19;99804.09;;;34.84;39.13
68301;BME280;55146;47.468;18.806;2023-07-16T12:50:44;99807.22;;;35.06;37.23
68301;BME280;55146;47.468;18.806;2023-07-16T12:53:09;99815.69;;;35.09;38.32